Time;durP1;ratioP1;P1;durP2;ratioP2;P2;SDS_P1;SDS_P2;PMS_P1;PMS_P2;Temp;Humidity;BMP_temperature;BMP_pressure;BME280_temperature;BME280_humidity;BME280_pressure;Samples;Min_cycle;Max_cycle;Signal;HPM_P1;HPM_P2
2021/07/24 00:00:30;;;;;;;;;;;17.60;99.90;;;;;;5039935;28;19920;-85
2021/07/24 00:02:56;;;;;;;;;;;17.50;99.90;;;;;;5043623;28;19967;-84
2021/07/24 00:05:23;;;;;;;;;;;17.50;99.90;;;;;;5052956;28;19920;-85
2021/07/24 00:07:48;;;;;;;;;;;17.50;99.90;;;;;;5041497;28;19922;-86
2021/07/24 00:10:14;;;;;;;;;;;17.50;99.90;;;;;;5012879;28;20023;-86
2021/07/24 00:12:40;;;;;;;;;;;17.50;99.90;;;;;;5044082;28;19932;-85
2021/07/24 00:15:06;;;;;;;;;;;17.50;99.90;;;;;;5041454;28;19925;-84
2021/07/24 00:17:31;;;;;;;;;;;17.50;99.90;;;;;;5051601;28;21564;-84
2021/07/24 00:19:57;;;;;;;;;;;17.50;99.90;;;;;;5040939;28;19928;-86
2021/07/24 00:22:23;;;;;;;;;;;17.50;99.90;;;;;;5025995;28;20035;-85
2021/07/24 00:24:48;;;;;;;;;;;17.40;99.90;;;;;;5056999;28;20268;-84
2021/07/24 00:27:14;;;;;;;;;;;17.40;99.90;;;;;;5039804;28;19966;-84
2021/07/24 00:29:40;;;;;;;;;;;17.40;99.90;;;;;;5069884;28;19978;-84
2021/07/24 00:32:06;;;;;;;;;;;17.40;99.90;;;;;;5027862;28;19920;-86
2021/07/24 00:34:32;;;;;;;;;;;17.40;99.90;;;;;;5044688;28;19924;-85
2021/07/24 00:36:58;;;;;;;;;;;17.40;99.90;;;;;;5071436;28;19963;-84
2021/07/24 00:39:24;;;;;;;;;;;17.40;99.90;;;;;;5043098;28;20035;-84
2021/07/24 00:41:57;;;;;;;;;;;17.40;99.90;;;;;;5039693;28;19939;-84
2021/07/24 00:44:24;;;;;;;;;;;17.40;99.90;;;;;;5043784;28;19924;-84
2021/07/24 00:46:50;;;;;;;;;;;17.40;99.90;;;;;;5039831;28;19924;-85
2021/07/24 00:49:17;;;;;;;;;;;17.40;99.90;;;;;;5039267;28;19925;-86
2021/07/24 00:51:45;;;;;;;;;;;17.40;99.90;;;;;;5011419;28;20006;-86
2021/07/24 00:54:12;;;;;;;;;;;17.40;99.90;;;;;;5042551;28;19920;-84
2021/07/24 00:56:39;;;;;;;;;;;17.40;99.90;;;;;;5027139;28;20402;-84
2021/07/24 00:59:05;;;;;;;;;;;17.40;99.90;;;;;;5043632;28;19920;-85
2021/07/24 01:01:30;;;;;;;;;;;17.30;99.90;;;;;;5052102;28;19925;-84
2021/07/24 01:03:56;;;;;;;;;;;17.30;99.90;;;;;;5041968;28;20255;-85
2021/07/24 01:06:22;;;;;;;;;;;17.30;99.90;;;;;;5045427;28;20390;-86
2021/07/24 01:08:48;;;;;;;;;;;17.30;99.90;;;;;;5061499;28;19931;-84
2021/07/24 01:11:14;;;;;;;;;;;17.30;99.90;;;;;;5043398;28;19970;-84
2021/07/24 01:13:40;;;;;;;;;;;17.30;99.90;;;;;;5061955;28;19921;-84
2021/07/24 01:16:06;;;;;;;;;;;17.30;99.90;;;;;;5039102;28;19932;-84
2021/07/24 01:18:32;;;;;;;;;;;17.30;99.90;;;;;;5061525;28;19951;-84
2021/07/24 01:20:59;;;;;;;;;;;17.30;99.90;;;;;;5052702;28;19963;-84
2021/07/24 01:23:24;;;;;;;;;;;17.30;99.90;;;;;;5064901;28;20765;-85
2021/07/24 01:25:51;;;;;;;;;;;17.30;99.90;;;;;;5064443;28;20035;-84
2021/07/24 01:28:25;;;;;;;;;;;17.20;99.90;;;;;;5042007;28;19921;-84
2021/07/24 01:30:51;;;;;;;;;;;17.20;99.90;;;;;;5063766;28;20743;-85
2021/07/24 01:33:16;;;;;;;;;;;17.20;99.90;;;;;;5061138;28;19972;-84
2021/07/24 01:35:46;;;;;;;;;;;17.20;99.90;;;;;;5049259;28;20025;-84
2021/07/24 01:38:16;;;;;;;;;;;17.20;99.90;;;;;;5057398;28;19928;-85
2021/07/24 01:40:42;;;;;;;;;;;17.20;99.90;;;;;;5044012;28;19928;-84
2021/07/24 01:43:09;;;;;;;;;;;17.20;99.90;;;;;;5053570;28;19928;-86
2021/07/24 01:45:37;;;;;;;;;;;17.10;99.90;;;;;;5083099;28;20401;-84
2021/07/24 01:48:05;;;;;;;;;;;17.10;99.90;;;;;;5057020;28;20436;-85
2021/07/24 01:53:18;;;;;;;;;;;17.10;99.90;;;;;;5059097;28;19925;-85
2021/07/24 01:55:47;;;;;;;;;;;17.10;99.90;;;;;;5058706;28;19924;-85
2021/07/24 01:58:14;;;;;;;;;;;17.10;99.90;;;;;;5058064;28;19925;-84
2021/07/24 02:00:42;;;;;;;;;;;17.10;99.90;;;;;;5084819;28;19933;-86
2021/07/24 02:03:11;;;;;;;;;;;17.00;99.90;;;;;;5023943;28;20047;-85
2021/07/24 02:05:41;;;;;;;;;;;17.00;99.90;;;;;;5068881;28;19932;-84
2021/07/24 02:08:08;;;;;;;;;;;17.00;99.90;;;;;;5036892;28;20031;-85
2021/07/24 02:10:34;;;;;;;;;;;17.00;99.90;;;;;;5026852;28;19928;-85
2021/07/24 02:12:59;;;;;;;;;;;17.00;99.90;;;;;;5025031;28;19927;-84
2021/07/24 02:15:25;;;;;;;;;;;17.00;99.90;;;;;;5040137;28;20070;-85
2021/07/24 02:17:51;;;;;;;;;;;17.00;99.90;;;;;;5056652;28;20306;-85
2021/07/24 02:20:19;;;;;;;;;;;17.00;99.90;;;;;;5024910;28;19925;-85
2021/07/24 02:22:44;;;;;;;;;;;17.00;99.90;;;;;;5025762;28;20019;-84
2021/07/24 02:25:10;;;;;;;;;;;17.00;99.90;;;;;;5041259;28;20019;-84
2021/07/24 02:27:38;;;;;;;;;;;17.00;99.90;;;;;;5025374;28;19964;-85
2021/07/24 02:30:04;;;;;;;;;;;17.00;99.90;;;;;;5035924;28;19929;-85
2021/07/24 02:32:30;;;;;;;;;;;17.00;99.90;;;;;;5037333;28;19929;-85
2021/07/24 02:34:56;;;;;;;;;;;17.00;99.90;;;;;;5072513;28;20332;-84
2021/07/24 02:37:22;;;;;;;;;;;17.00;99.90;;;;;;5041923;28;19921;-85
2021/07/24 02:39:47;;;;;;;;;;;17.00;99.90;;;;;;5042201;28;19925;-85
2021/07/24 02:42:15;;;;;;;;;;;17.00;99.90;;;;;;5073937;28;20386;-85
2021/07/24 02:44:42;;;;;;;;;;;16.90;99.90;;;;;;5070065;28;19928;-84
2021/07/24 02:47:07;;;;;;;;;;;16.90;99.90;;;;;;5035853;28;20301;-85
2021/07/24 02:49:34;;;;;;;;;;;16.90;99.90;;;;;;5023437;28;19925;-84
2021/07/24 02:51:59;;;;;;;;;;;16.90;99.90;;;;;;5060169;28;19924;-85
2021/07/24 02:54:25;;;;;;;;;;;16.90;99.90;;;;;;5007872;28;19925;-85
2021/07/24 02:56:51;;;;;;;;;;;16.90;99.90;;;;;;5022055;28;19921;-85
2021/07/24 02:59:16;;;;;;;;;;;16.90;99.90;;;;;;5039635;28;19925;-85
2021/07/24 03:01:43;;;;;;;;;;;16.90;99.90;;;;;;4984015;28;1796629;-84
2021/07/24 03:04:09;;;;;;;;;;;16.90;99.90;;;;;;5041828;28;20381;-84
2021/07/24 03:06:35;;;;;;;;;;;16.90;99.90;;;;;;5012989;28;19943;-84
2021/07/24 03:09:03;;;;;;;;;;;16.90;99.90;;;;;;5040335;28;19925;-85
2021/07/24 03:11:29;;;;;;;;;;;16.90;99.90;;;;;;5031795;28;20023;-84
2021/07/24 03:13:55;;;;;;;;;;;16.90;99.90;;;;;;5048483;28;19924;-85
2021/07/24 03:16:21;;;;;;;;;;;16.90;99.90;;;;;;5047341;28;19921;-84
2021/07/24 03:18:47;;;;;;;;;;;16.80;99.90;;;;;;5046884;28;19921;-84
2021/07/24 03:21:12;;;;;;;;;;;16.80;99.90;;;;;;4983436;28;20012;-85
2021/07/24 03:23:38;;;;;;;;;;;16.80;99.90;;;;;;5028607;28;20401;-86
2021/07/24 03:26:08;;;;;;;;;;;16.80;99.90;;;;;;5040306;28;19958;-85
2021/07/24 03:28:34;;;;;;;;;;;16.80;99.90;;;;;;5047139;28;19921;-84
2021/07/24 03:30:59;;;;;;;;;;;16.80;99.90;;;;;;5035221;28;19979;-85
2021/07/24 03:33:25;;;;;;;;;;;16.80;99.90;;;;;;5023973;28;19925;-84
2021/07/24 03:35:51;;;;;;;;;;;16.80;99.90;;;;;;5045984;28;19936;-85
2021/07/24 03:38:16;;;;;;;;;;;16.80;99.90;;;;;;5034057;28;19959;-85
2021/07/24 03:40:43;;;;;;;;;;;16.70;99.90;;;;;;5028633;28;19925;-84
2021/07/24 03:43:09;;;;;;;;;;;16.70;99.90;;;;;;5025656;28;19925;-84
2021/07/24 03:45:37;;;;;;;;;;;16.70;99.90;;;;;;5047550;28;19935;-84
2021/07/24 03:48:02;;;;;;;;;;;16.70;99.90;;;;;;5031724;28;20384;-84
2021/07/24 03:50:29;;;;;;;;;;;16.70;99.90;;;;;;5044935;28;20753;-86
2021/07/24 03:52:54;;;;;;;;;;;16.70;99.90;;;;;;5046913;28;19971;-85
2021/07/24 03:55:20;;;;;;;;;;;16.70;99.90;;;;;;5050192;28;19964;-85
2021/07/24 03:57:46;;;;;;;;;;;16.70;99.90;;;;;;5046543;28;20627;-86
2021/07/24 04:00:12;;;;;;;;;;;16.70;99.90;;;;;;5013281;28;20470;-84
2021/07/24 04:02:41;;;;;;;;;;;16.60;99.90;;;;;;5032976;28;20352;-85
2021/07/24 04:05:07;;;;;;;;;;;16.70;99.90;;;;;;5015113;28;19936;-85
2021/07/24 04:07:34;;;;;;;;;;;16.60;99.90;;;;;;5028982;28;19932;-84
2021/07/24 04:10:00;;;;;;;;;;;16.60;99.90;;;;;;5032628;28;20035;-83
2021/07/24 04:12:26;;;;;;;;;;;16.60;99.90;;;;;;5025772;28;20464;-83
2021/07/24 04:14:52;;;;;;;;;;;16.60;99.90;;;;;;5035373;28;19925;-84
2021/07/24 04:17:17;;;;;;;;;;;16.60;99.90;;;;;;5041242;28;19924;-84
2021/07/24 04:19:44;;;;;;;;;;;16.60;99.90;;;;;;5028682;28;19975;-85
2021/07/24 04:22:10;;;;;;;;;;;16.60;99.90;;;;;;5035481;28;19921;-85
2021/07/24 04:24:35;;;;;;;;;;;16.60;99.90;;;;;;5039895;28;19929;-83
2021/07/24 04:27:01;;;;;;;;;;;16.60;99.90;;;;;;5029913;28;19924;-84
2021/07/24 04:29:27;;;;;;;;;;;16.60;99.90;;;;;;5042292;28;19925;-84
2021/07/24 04:31:55;;;;;;;;;;;16.60;99.90;;;;;;5038168;28;19975;-85
2021/07/24 04:34:21;;;;;;;;;;;16.60;99.90;;;;;;5019970;28;20027;-84
2021/07/24 04:36:47;;;;;;;;;;;16.60;99.90;;;;;;5040119;28;20035;-86
2021/07/24 04:39:12;;;;;;;;;;;16.60;99.90;;;;;;5022093;28;19921;-85
2021/07/24 04:41:38;;;;;;;;;;;16.60;99.90;;;;;;5046407;28;19970;-85
2021/07/24 04:44:04;;;;;;;;;;;16.70;99.90;;;;;;5002846;28;19924;-84
2021/07/24 04:46:30;;;;;;;;;;;16.70;99.90;;;;;;5047061;28;20043;-85
2021/07/24 04:48:56;;;;;;;;;;;16.60;99.90;;;;;;5005960;28;20015;-85
2021/07/24 04:51:21;;;;;;;;;;;16.60;99.90;;;;;;5030736;28;19940;-84
2021/07/24 04:53:48;;;;;;;;;;;16.60;99.90;;;;;;5031842;28;19925;-86
2021/07/24 04:56:14;;;;;;;;;;;16.70;99.90;;;;;;5030050;28;20510;-85
2021/07/24 04:58:40;;;;;;;;;;;16.70;99.90;;;;;;5012194;28;20020;-84
2021/07/24 05:01:06;;;;;;;;;;;16.70;99.90;;;;;;5040241;28;20394;-84
2021/07/24 05:03:32;;;;;;;;;;;16.70;99.90;;;;;;5030886;28;19921;-84
2021/07/24 05:05:58;;;;;;;;;;;16.70;99.90;;;;;;5039111;28;20004;-85
2021/07/24 05:08:24;;;;;;;;;;;16.70;99.90;;;;;;5030371;28;19928;-86
2021/07/24 05:10:50;;;;;;;;;;;16.70;99.90;;;;;;5026771;28;20375;-86
2021/07/24 05:13:16;;;;;;;;;;;16.70;99.90;;;;;;5019033;28;19971;-85
2021/07/24 05:15:42;;;;;;;;;;;16.70;99.90;;;;;;5045952;28;19995;-85
2021/07/24 05:18:08;;;;;;;;;;;16.70;99.90;;;;;;5036815;28;19929;-84
2021/07/24 05:20:34;;;;;;;;;;;16.70;99.90;;;;;;5047559;28;19928;-85
2021/07/24 05:22:59;;;;;;;;;;;16.70;99.90;;;;;;5019800;28;20288;-85
2021/07/24 05:25:25;;;;;;;;;;;16.70;99.90;;;;;;5031035;28;19932;-86
2021/07/24 05:27:51;;;;;;;;;;;16.80;99.90;;;;;;5045543;28;19974;-85
2021/07/24 05:30:17;;;;;;;;;;;16.70;99.90;;;;;;5025493;28;20276;-85
2021/07/24 05:32:43;;;;;;;;;;;16.80;99.90;;;;;;5030166;28;19931;-85
2021/07/24 05:35:09;;;;;;;;;;;16.80;99.90;;;;;;5001891;28;19925;-85
2021/07/24 05:37:35;;;;;;;;;;;16.80;99.90;;;;;;5045559;28;20362;-84
2021/07/24 05:40:01;;;;;;;;;;;16.90;99.90;;;;;;5039006;28;19968;-85
2021/07/24 05:42:27;;;;;;;;;;;16.80;99.90;;;;;;5026265;28;19924;-85
2021/07/24 05:44:52;;;;;;;;;;;16.90;99.90;;;;;;5014122;28;19940;-86
2021/07/24 05:47:19;;;;;;;;;;;16.90;99.90;;;;;;5010895;28;19929;-84
2021/07/24 05:49:44;;;;;;;;;;;16.90;99.90;;;;;;5039931;28;19978;-84
2021/07/24 05:52:11;;;;;;;;;;;16.90;99.90;;;;;;5043809;28;19933;-86
2021/07/24 05:54:37;;;;;;;;;;;16.90;99.90;;;;;;5050257;28;19931;-84
2021/07/24 05:57:06;;;;;;;;;;;16.90;99.90;;;;;;5025342;28;19925;-84
2021/07/24 05:59:33;;;;;;;;;;;17.00;99.90;;;;;;5050194;28;19925;-85
2021/07/24 06:01:59;;;;;;;;;;;17.00;99.90;;;;;;5036300;28;19928;-84
2021/07/24 06:04:25;;;;;;;;;;;17.00;99.90;;;;;;5050186;28;19929;-85
2021/07/24 06:06:51;;;;;;;;;;;17.10;99.90;;;;;;5032361;28;19953;-84
2021/07/24 06:09:17;;;;;;;;;;;17.10;99.90;;;;;;5027933;28;19981;-86
2021/07/24 06:11:43;;;;;;;;;;;17.10;99.90;;;;;;5048921;28;20359;-85
2021/07/24 06:14:08;;;;;;;;;;;17.10;99.90;;;;;;5000264;28;20375;-84
2021/07/24 06:16:36;;;;;;;;;;;17.10;99.90;;;;;;5027045;28;19929;-84
2021/07/24 06:19:02;;;;;;;;;;;17.20;99.90;;;;;;5042329;28;19924;-85
2021/07/24 06:21:27;;;;;;;;;;;17.20;99.90;;;;;;5023717;28;19921;-84
2021/07/24 06:23:53;;;;;;;;;;;17.20;99.90;;;;;;5048426;28;19927;-87
2021/07/24 06:26:19;;;;;;;;;;;17.30;99.90;;;;;;5032079;28;19925;-85
2021/07/24 06:28:45;;;;;;;;;;;17.30;99.90;;;;;;5031621;28;20036;-85
2021/07/24 06:31:10;;;;;;;;;;;17.30;99.90;;;;;;4991832;28;19940;-84
2021/07/24 06:33:36;;;;;;;;;;;17.30;99.90;;;;;;5029343;28;19987;-85
2021/07/24 06:36:02;;;;;;;;;;;17.30;99.90;;;;;;5035697;28;19925;-85
2021/07/24 06:38:28;;;;;;;;;;;17.30;99.90;;;;;;5029237;28;20404;-86
2021/07/24 06:40:54;;;;;;;;;;;17.30;99.90;;;;;;5049235;28;19925;-86
2021/07/24 06:43:20;;;;;;;;;;;17.30;99.90;;;;;;5044349;28;19968;-84
2021/07/24 06:45:45;;;;;;;;;;;17.30;99.90;;;;;;5030188;28;19925;-86
2021/07/24 06:48:12;;;;;;;;;;;17.40;99.90;;;;;;5009106;28;20426;-85
2021/07/24 06:50:37;;;;;;;;;;;17.40;99.90;;;;;;5043628;28;20011;-85
2021/07/24 06:53:03;;;;;;;;;;;17.40;99.90;;;;;;5007427;28;20281;-90
2021/07/24 06:55:29;;;;;;;;;;;17.50;99.90;;;;;;5032248;28;19994;-86
2021/07/24 06:57:57;;;;;;;;;;;17.50;99.90;;;;;;5048003;28;19921;-86
2021/07/24 07:00:23;;;;;;;;;;;17.50;99.90;;;;;;5049738;28;19925;-93
2021/07/24 07:02:49;;;;;;;;;;;17.60;99.90;;;;;;5048757;28;19925;-84
2021/07/24 07:05:15;;;;;;;;;;;17.60;99.90;;;;;;5040989;28;19932;-85
2021/07/24 07:07:40;;;;;;;;;;;17.60;99.90;;;;;;5023382;28;19925;-85
2021/07/24 07:10:06;;;;;;;;;;;17.70;99.90;;;;;;5030474;28;19929;-84
2021/07/24 07:12:32;;;;;;;;;;;17.70;99.90;;;;;;5027595;28;19925;-84
2021/07/24 07:15:02;;;;;;;;;;;17.70;99.90;;;;;;5007069;28;19979;-84
2021/07/24 07:17:27;;;;;;;;;;;17.80;99.90;;;;;;5047543;28;20286;-85
2021/07/24 07:19:53;;;;;;;;;;;17.80;99.90;;;;;;5030412;28;19921;-84
2021/07/24 07:22:19;;;;;;;;;;;17.80;99.90;;;;;;5000835;28;19932;-84
2021/07/24 07:24:44;;;;;;;;;;;17.80;99.90;;;;;;5031090;28;19917;-85
2021/07/24 07:27:10;;;;;;;;;;;17.90;99.90;;;;;;4985887;28;19925;-84
2021/07/24 07:29:36;;;;;;;;;;;17.90;99.90;;;;;;5046391;28;19932;-84
2021/07/24 07:32:01;;;;;;;;;;;18.00;99.90;;;;;;5001308;28;19920;-85
2021/07/24 07:34:27;;;;;;;;;;;18.00;99.90;;;;;;5015957;28;20358;-84
2021/07/24 07:36:53;;;;;;;;;;;18.00;99.90;;;;;;5028747;28;19927;-85
2021/07/24 07:39:18;;;;;;;;;;;18.10;99.90;;;;;;5022968;28;19943;-86
2021/07/24 07:41:44;;;;;;;;;;;18.10;99.90;;;;;;5029238;28;19932;-86
2021/07/24 07:44:10;;;;;;;;;;;18.10;99.90;;;;;;4999240;28;19960;-84
2021/07/24 07:46:35;;;;;;;;;;;18.10;99.90;;;;;;5026666;28;19979;-85
2021/07/24 07:49:02;;;;;;;;;;;18.20;99.90;;;;;;5024493;28;19925;-84
2021/07/24 07:51:27;;;;;;;;;;;18.20;99.90;;;;;;5031370;28;19931;-84
2021/07/24 07:53:53;;;;;;;;;;;18.20;99.90;;;;;;5048093;28;20015;-85
2021/07/24 07:56:19;;;;;;;;;;;18.30;99.90;;;;;;5029809;28;19959;-86
2021/07/24 07:58:44;;;;;;;;;;;18.30;99.90;;;;;;5046498;28;19920;-85
2021/07/24 08:01:11;;;;;;;;;;;18.40;99.90;;;;;;5004670;28;19932;-85
2021/07/24 08:03:39;;;;;;;;;;;18.40;99.90;;;;;;5047452;28;19925;-84
2021/07/24 08:06:05;;;;;;;;;;;18.40;99.90;;;;;;5016690;28;19987;-85
2021/07/24 08:08:31;;;;;;;;;;;18.50;99.90;;;;;;5030664;28;20391;-86
2021/07/24 08:10:57;;;;;;;;;;;18.50;99.90;;;;;;5039843;28;20383;-85
2021/07/24 08:13:25;;;;;;;;;;;18.50;99.90;;;;;;5015186;28;19936;-85
2021/07/24 08:15:50;;;;;;;;;;;18.60;99.90;;;;;;5046484;28;19933;-84
2021/07/24 08:18:16;;;;;;;;;;;18.60;99.90;;;;;;5025068;28;20492;-84
2021/07/24 08:20:42;;;;;;;;;;;18.70;99.90;;;;;;5030691;28;19925;-85
2021/07/24 08:23:08;;;;;;;;;;;18.70;99.90;;;;;;5020815;28;20375;-85
2021/07/24 08:25:34;;;;;;;;;;;18.70;99.90;;;;;;5041242;28;20327;-85
2021/07/24 08:28:00;;;;;;;;;;;18.80;99.90;;;;;;5029358;28;19999;-85
2021/07/24 08:30:26;;;;;;;;;;;18.80;99.90;;;;;;5046038;28;19924;-84
2021/07/24 08:32:52;;;;;;;;;;;18.90;99.90;;;;;;5047393;28;20315;-84
2021/07/24 08:35:18;;;;;;;;;;;18.90;99.90;;;;;;5046708;28;19932;-85
2021/07/24 08:37:43;;;;;;;;;;;18.90;99.90;;;;;;5047788;28;20077;-85
2021/07/24 08:40:11;;;;;;;;;;;19.00;99.90;;;;;;5041359;28;20376;-85
2021/07/24 08:42:40;;;;;;;;;;;19.00;99.90;;;;;;5047550;28;20031;-85
2021/07/24 08:45:06;;;;;;;;;;;19.10;99.90;;;;;;5040728;28;19970;-84
2021/07/24 08:47:31;;;;;;;;;;;19.10;99.90;;;;;;5026435;28;19928;-84
2021/07/24 08:50:02;;;;;;;;;;;19.20;99.90;;;;;;5038832;28;20406;-84
2021/07/24 08:52:29;;;;;;;;;;;19.20;99.90;;;;;;5047400;28;19975;-84
2021/07/24 08:54:55;;;;;;;;;;;19.20;99.90;;;;;;5046446;28;19920;-84
2021/07/24 08:57:32;;;;;;;;;;;19.30;99.90;;;;;;5009734;28;20000;-84
2021/07/24 09:00:01;;;;;;;;;;;19.30;99.90;;;;;;5031616;28;20284;-84
2021/07/24 09:02:28;;;;;;;;;;;19.40;99.90;;;;;;5047185;28;19929;-84
2021/07/24 09:04:54;;;;;;;;;;;19.40;99.90;;;;;;5047107;28;19931;-85
2021/07/24 09:07:20;;;;;;;;;;;19.40;99.90;;;;;;5033086;28;19925;-84
2021/07/24 09:09:46;;;;;;;;;;;19.50;99.90;;;;;;5028462;28;19958;-84
2021/07/24 09:12:13;;;;;;;;;;;19.50;99.90;;;;;;5030752;28;20043;-85
2021/07/24 09:14:38;;;;;;;;;;;19.60;99.90;;;;;;5044344;28;19917;-83
2021/07/24 09:17:05;;;;;;;;;;;19.60;99.90;;;;;;5028997;28;20438;-85
2021/07/24 09:19:31;;;;;;;;;;;19.70;99.90;;;;;;4996669;28;19921;-85
2021/07/24 09:21:56;;;;;;;;;;;19.70;99.90;;;;;;5016175;28;19924;-85
2021/07/24 09:24:23;;;;;;;;;;;19.80;99.90;;;;;;5020374;28;19998;-87
2021/07/24 09:26:49;;;;;;;;;;;19.80;99.90;;;;;;5033295;28;20433;-87
2021/07/24 09:29:19;;;;;;;;;;;19.90;99.90;;;;;;5020105;28;19924;-84
2021/07/24 09:31:45;;;;;;;;;;;20.00;99.90;;;;;;5064921;28;19959;-86
2021/07/24 09:34:13;;;;;;;;;;;20.00;99.90;;;;;;5045482;28;20004;-85
2021/07/24 09:36:39;;;;;;;;;;;20.00;99.90;;;;;;5021611;28;19952;-85
2021/07/24 09:39:12;;;;;;;;;;;20.10;99.90;;;;;;5035610;28;19925;-84
2021/07/24 09:41:38;;;;;;;;;;;20.10;99.90;;;;;;5026211;28;19924;-84
2021/07/24 09:44:04;;;;;;;;;;;20.10;99.90;;;;;;5041817;28;19921;-86
2021/07/24 09:46:30;;;;;;;;;;;20.20;99.90;;;;;;5049414;28;19924;-86
2021/07/24 09:48:55;;;;;;;;;;;20.20;99.90;;;;;;5009064;28;20402;-86
2021/07/24 09:51:30;;;;;;;;;;;20.20;99.90;;;;;;5047001;28;20020;-87
2021/07/24 09:53:56;;;;;;;;;;;20.30;99.90;;;;;;5017978;28;20354;-86
2021/07/24 09:56:36;;;;;;;;;;;20.30;99.90;;;;;;5049399;28;19944;-86
2021/07/24 09:59:22;;;;;;;;;;;20.30;99.90;;;;;;5049643;28;19925;-85
2021/07/24 10:01:54;;;;;;;;;;;20.30;99.90;;;;;;5049588;28;19929;-86
2021/07/24 10:04:29;;;;;;;;;;;20.40;99.90;;;;;;5028913;28;19924;-86
2021/07/24 10:06:56;;;;;;;;;;;20.40;99.90;;;;;;5015523;28;19971;-84
2021/07/24 10:09:25;;;;;;;;;;;20.40;99.90;;;;;;5049709;28;19944;-86
2021/07/24 10:11:54;;;;;;;;;;;20.40;99.90;;;;;;5050155;28;19928;-86
2021/07/24 10:14:21;;;;;;;;;;;20.40;99.90;;;;;;5034082;28;20392;-85
2021/07/24 10:16:47;;;;;;;;;;;20.50;99.90;;;;;;5047598;28;20647;-86
2021/07/24 10:19:13;;;;;;;;;;;20.50;99.90;;;;;;5043836;28;19932;-86
2021/07/24 10:21:39;;;;;;;;;;;20.50;99.90;;;;;;5049718;28;19927;-86
2021/07/24 10:24:05;;;;;;;;;;;20.50;99.90;;;;;;5042650;28;19925;-86
2021/07/24 10:26:33;;;;;;;;;;;20.50;99.90;;;;;;5022501;28;19929;-85
2021/07/24 10:29:04;;;;;;;;;;;20.50;99.90;;;;;;5042609;28;19925;-86
2021/07/24 10:31:52;;;;;;;;;;;20.50;99.90;;;;;;5022752;28;20018;-85
2021/07/24 10:34:26;;;;;;;;;;;20.50;99.90;;;;;;5060220;28;19929;-86
2021/07/24 10:36:52;;;;;;;;;;;20.60;99.90;;;;;;5041624;28;19921;-86
2021/07/24 10:39:19;;;;;;;;;;;20.60;99.90;;;;;;5056088;28;19936;-84
2021/07/24 10:41:46;;;;;;;;;;;20.60;99.90;;;;;;5023455;28;19960;-85
2021/07/24 10:44:11;;;;;;;;;;;20.60;99.90;;;;;;5022558;28;19973;-85
2021/07/24 10:46:40;;;;;;;;;;;20.70;99.90;;;;;;5040941;28;19925;-86
2021/07/24 10:49:06;;;;;;;;;;;20.80;99.90;;;;;;5056483;28;19924;-85
2021/07/24 10:51:53;;;;;;;;;;;20.80;99.90;;;;;;5022401;28;19932;-85
2021/07/24 10:54:18;;;;;;;;;;;20.90;99.90;;;;;;5055984;28;19928;-85
2021/07/24 10:56:44;;;;;;;;;;;20.90;99.90;;;;;;5028903;28;19920;-86
2021/07/24 10:59:13;;;;;;;;;;;21.00;99.90;;;;;;5057589;28;19929;-84
2021/07/24 11:01:45;;;;;;;;;;;21.10;99.90;;;;;;5040302;28;20314;-84
2021/07/24 11:04:29;;;;;;;;;;;21.10;99.90;;;;;;5035528;28;19964;-85
2021/07/24 11:07:15;;;;;;;;;;;21.10;99.90;;;;;;5045369;28;19929;-85
2021/07/24 11:09:44;;;;;;;;;;;21.10;99.90;;;;;;5037928;28;19928;-84
2021/07/24 11:12:10;;;;;;;;;;;21.10;99.90;;;;;;5034978;28;19929;-85
2021/07/24 11:14:36;;;;;;;;;;;21.20;99.90;;;;;;5038914;28;19971;-85
2021/07/24 11:17:05;;;;;;;;;;;21.30;99.90;;;;;;5053482;28;19921;-85
2021/07/24 11:19:35;;;;;;;;;;;21.30;99.90;;;;;;5052996;28;19928;-84
2021/07/24 11:22:08;;;;;;;;;;;21.40;99.90;;;;;;5032895;28;20038;-86
2021/07/24 11:24:33;;;;;;;;;;;21.40;99.90;;;;;;5041354;28;19979;-85
2021/07/24 11:26:59;;;;;;;;;;;21.50;99.90;;;;;;5035417;28;19920;-84
2021/07/24 11:29:25;;;;;;;;;;;21.60;99.90;;;;;;5059163;28;19932;-84
2021/07/24 11:31:51;;;;;;;;;;;21.60;99.90;;;;;;5026110;28;19929;-85
2021/07/24 11:34:19;;;;;;;;;;;21.60;99.90;;;;;;5015990;28;20426;-85
2021/07/24 11:36:48;;;;;;;;;;;21.60;99.90;;;;;;5035934;28;20019;-86
2021/07/24 11:39:14;;;;;;;;;;;21.60;99.90;;;;;;5036746;28;19925;-91
2021/07/24 11:41:41;;;;;;;;;;;21.70;99.90;;;;;;5064481;28;20443;-90
2021/07/24 11:44:06;;;;;;;;;;;21.60;99.90;;;;;;5037467;28;19924;-85
2021/07/24 11:46:32;;;;;;;;;;;21.60;99.90;;;;;;5036877;28;19932;-85
2021/07/24 11:49:02;;;;;;;;;;;21.70;99.90;;;;;;5029455;28;19925;-86
2021/07/24 11:51:28;;;;;;;;;;;21.70;99.90;;;;;;5059132;28;19924;-85
2021/07/24 11:53:55;;;;;;;;;;;21.70;99.90;;;;;;5047971;28;19924;-85
2021/07/24 11:56:21;;;;;;;;;;;21.70;99.90;;;;;;5040466;28;19930;-85
2021/07/24 11:58:56;;;;;;;;;;;21.70;99.90;;;;;;5045477;28;20343;-85
2021/07/24 12:01:23;;;;;;;;;;;21.70;99.90;;;;;;5011174;28;19929;-86
2021/07/24 12:04:02;;;;;;;;;;;21.80;99.90;;;;;;5029512;28;19982;-85
2021/07/24 12:06:27;;;;;;;;;;;21.80;99.90;;;;;;5039387;28;19921;-84
2021/07/24 12:08:53;;;;;;;;;;;21.80;99.90;;;;;;5021366;28;19928;-85
2021/07/24 12:11:19;;;;;;;;;;;21.90;99.90;;;;;;5038559;28;19952;-91
2021/07/24 12:13:45;;;;;;;;;;;21.90;99.90;;;;;;5026640;28;20348;-85
2021/07/24 12:16:15;;;;;;;;;;;22.00;99.90;;;;;;5038334;28;19928;-85
2021/07/24 12:18:48;;;;;;;;;;;22.00;99.90;;;;;;5036213;28;19925;-90
2021/07/24 12:21:13;;;;;;;;;;;22.10;99.90;;;;;;5032475;28;20312;-95
2021/07/24 12:23:43;;;;;;;;;;;22.10;99.90;;;;;;5024251;28;19921;-95
2021/07/24 12:26:10;;;;;;;;;;;22.10;99.90;;;;;;5016653;28;20396;-90
2021/07/24 12:28:36;;;;;;;;;;;22.20;99.90;;;;;;5024964;28;19968;-91
2021/07/24 12:31:18;;;;;;;;;;;22.20;99.90;;;;;;5031079;28;19963;-90
2021/07/24 12:33:48;;;;;;;;;;;22.20;99.90;;;;;;5043284;28;19932;-91
2021/07/24 12:36:14;;;;;;;;;;;22.20;99.90;;;;;;5038033;28;19935;-91
2021/07/24 12:38:40;;;;;;;;;;;22.20;99.90;;;;;;5036573;28;19925;-93
2021/07/24 12:41:06;;;;;;;;;;;22.20;99.90;;;;;;5018475;28;19962;-93
2021/07/24 12:43:32;;;;;;;;;;;22.20;99.90;;;;;;5023805;28;20324;-92
2021/07/24 12:46:11;;;;;;;;;;;22.20;99.90;;;;;;5036094;28;19925;-91
2021/07/24 12:48:40;;;;;;;;;;;22.20;99.90;;;;;;5036773;28;19929;-93
2021/07/24 12:51:10;;;;;;;;;;;22.30;99.90;;;;;;5017210;28;20464;-91
2021/07/24 12:53:36;;;;;;;;;;;22.20;99.90;;;;;;5024854;28;20552;-92
2021/07/24 12:56:03;;;;;;;;;;;22.20;99.90;;;;;;5016229;28;19929;-93
2021/07/24 12:58:29;;;;;;;;;;;22.20;99.90;;;;;;5027041;28;20291;-95
2021/07/24 13:01:06;;;;;;;;;;;22.20;99.90;;;;;;5029805;28;19916;-91
2021/07/24 13:03:32;;;;;;;;;;;22.20;99.90;;;;;;5029258;28;19924;-87
2021/07/24 13:05:58;;;;;;;;;;;22.20;99.90;;;;;;5029154;28;20332;-87
2021/07/24 13:08:24;;;;;;;;;;;22.20;99.90;;;;;;5045240;28;19925;-88
2021/07/24 13:10:49;;;;;;;;;;;22.20;99.90;;;;;;5043171;28;20033;-88
2021/07/24 13:13:15;;;;;;;;;;;22.20;99.90;;;;;;5036367;28;19921;-88
2021/07/24 13:15:41;;;;;;;;;;;22.20;99.90;;;;;;5042385;28;19924;-87
2021/07/24 13:18:06;;;;;;;;;;;22.20;99.90;;;;;;5062733;28;19964;-88
2021/07/24 13:20:32;;;;;;;;;;;22.20;99.90;;;;;;5023969;28;19925;-88
2021/07/24 13:22:58;;;;;;;;;;;22.20;99.90;;;;;;5060428;28;19968;-88
2021/07/24 13:28:14;;;;;;;;;;;22.10;99.90;;;;;;5056939;28;19932;-88
2021/07/24 13:30:41;;;;;;;;;;;22.10;99.90;;;;;;5044455;28;19935;-88
2021/07/24 13:33:07;;;;;;;;;;;22.00;99.90;;;;;;5026901;28;19935;-88
2021/07/24 13:35:33;;;;;;;;;;;22.00;99.90;;;;;;5022615;28;20322;-88
2021/07/24 13:37:59;;;;;;;;;;;22.00;99.90;;;;;;5031813;28;19925;-88
2021/07/24 13:40:25;;;;;;;;;;;22.00;99.90;;;;;;5023056;28;20015;-88
2021/07/24 13:42:51;;;;;;;;;;;22.00;99.90;;;;;;5007874;28;19924;-89
2021/07/24 13:45:17;;;;;;;;;;;22.00;99.90;;;;;;5035787;28;19925;-88
2021/07/24 13:47:42;;;;;;;;;;;22.00;99.90;;;;;;5042556;28;19928;-89
2021/07/24 13:50:09;;;;;;;;;;;22.00;99.90;;;;;;5075293;28;19947;-88
2021/07/24 13:52:35;;;;;;;;;;;22.00;99.90;;;;;;5031665;28;19925;-88
2021/07/24 13:55:04;;;;;;;;;;;22.00;99.90;;;;;;5025956;28;19991;-88
2021/07/24 13:57:31;;;;;;;;;;;22.00;99.90;;;;;;5009379;28;19971;-89
2021/07/24 13:59:56;;;;;;;;;;;22.00;99.90;;;;;;5028057;28;20367;-88
2021/07/24 14:02:22;;;;;;;;;;;22.00;99.90;;;;;;5030093;28;19959;-88
2021/07/24 14:04:48;;;;;;;;;;;21.90;99.90;;;;;;5029932;28;19925;-88
2021/07/24 14:07:13;;;;;;;;;;;22.00;99.90;;;;;;5037607;28;19925;-89
2021/07/24 14:09:39;;;;;;;;;;;22.00;99.90;;;;;;5042128;28;19921;-89
2021/07/24 14:12:05;;;;;;;;;;;21.90;99.90;;;;;;5009267;28;19929;-88
2021/07/24 14:14:31;;;;;;;;;;;21.90;99.90;;;;;;5059349;28;20018;-89
2021/07/24 14:16:57;;;;;;;;;;;21.90;99.90;;;;;;5045263;28;20019;-87
2021/07/24 14:19:23;;;;;;;;;;;21.90;99.90;;;;;;5034169;28;19956;-88